createdAt,value
2022-11-03T00:00:42.634Z,1.80
2022-11-03T00:06:46.978Z,1.90
2022-11-03T00:12:51.848Z,2.33
2022-11-03T00:18:55.595Z,1.90
2022-11-03T00:24:58.957Z,2.00
2022-11-03T00:31:04.205Z,2.42
2022-11-03T00:37:07.742Z,2.05
2022-11-03T00:43:11.206Z,2.17
2022-11-03T00:49:16.255Z,2.53
2022-11-03T00:55:19.753Z,1.75
2022-11-03T01:01:24.470Z,2.03
2022-11-03T01:07:29.425Z,2.17
2022-11-03T01:13:32.842Z,2.42
2022-11-03T01:19:36.285Z,1.80
2022-11-03T01:25:41.074Z,2.25
2022-11-03T01:31:44.548Z,1.63
2022-11-03T01:37:48.061Z,2.03
2022-11-03T01:44:06.816Z,1.38
2022-11-03T01:50:12.157Z,1.17
2022-11-03T01:56:15.727Z,0.95
2022-11-03T02:02:20.728Z,2.13
2022-11-03T02:08:26.565Z,1.85
2022-11-03T02:14:30.177Z,1.42
2022-11-03T02:20:35.196Z,1.33
2022-11-03T02:26:40.365Z,1.80
2022-11-03T02:32:47.430Z,1.63
2022-11-03T02:38:57.391Z,1.38
2022-11-03T02:45:03.317Z,2.35
2022-11-03T02:51:06.703Z,1.60
2022-11-03T02:57:14.958Z,1.60
2022-11-03T03:03:22.390Z,1.98
2022-11-03T03:09:27.778Z,1.60
2022-11-03T03:15:37.593Z,1.55
2022-11-03T03:21:45.374Z,1.60
2022-11-03T03:27:50.698Z,1.58
2022-11-03T03:34:04.256Z,1.70
2022-11-03T03:40:18.577Z,1.75
2022-11-03T03:46:23.298Z,1.35
2022-11-03T03:52:27.372Z,2.03
2022-11-03T03:58:32.162Z,1.67
2022-11-03T04:04:35.506Z,1.73
2022-11-03T04:10:39.091Z,1.40
2022-11-03T04:17:01.827Z,1.50
2022-11-03T04:23:05.298Z,1.55
2022-11-03T04:29:09.318Z,1.25
2022-11-03T04:35:18.624Z,1.70
2022-11-03T04:41:24.894Z,1.88
2022-11-03T04:47:29.099Z,1.67
2022-11-03T04:53:34.940Z,1.90
2022-11-03T04:59:38.505Z,2.20
2022-11-03T05:05:42.051Z,1.80
2022-11-03T05:11:47.346Z,2.30
2022-11-03T05:17:50.757Z,1.38
2022-11-03T05:23:56.601Z,1.83
2022-11-03T05:30:01.902Z,2.33
2022-11-03T05:36:10.475Z,1.98
2022-11-03T05:42:22.628Z,1.90
2022-11-03T05:48:32.997Z,1.73
2022-11-03T05:54:36.380Z,1.85
2022-11-03T06:00:48.077Z,1.40
2022-11-03T06:06:55.392Z,1.52
2022-11-03T06:13:01.736Z,2.22
2022-11-03T06:19:12.731Z,1.90
2022-11-03T06:25:22.912Z,2.35
2022-11-03T06:31:28.691Z,2.00
2022-11-03T06:37:34.359Z,1.73
2022-11-03T06:43:41.763Z,1.95
2022-11-03T06:49:45.457Z,2.47
2022-11-03T06:55:50.493Z,1.40
2022-11-03T07:01:56.452Z,2.55
2022-11-03T07:08:01.024Z,2.03
2022-11-03T07:14:11.416Z,2.00
2022-11-03T07:20:17.793Z,2.05
2022-11-03T07:26:21.741Z,2.13
2022-11-03T07:32:27.654Z,1.60
2022-11-03T07:38:35.190Z,2.10
2022-11-03T07:44:38.698Z,1.67
2022-11-03T07:50:42.214Z,1.55
2022-11-03T07:56:48.443Z,2.28
2022-11-03T08:02:53.739Z,1.75
2022-11-03T08:08:57.319Z,1.90
2022-11-03T08:15:02.562Z,1.70
2022-11-03T08:21:06.056Z,1.88
2022-11-03T08:27:09.438Z,2.15
2022-11-03T08:33:14.331Z,2.15
2022-11-03T08:39:19.260Z,2.17
2022-11-03T08:45:22.688Z,2.03
2022-11-03T08:51:27.569Z,1.90
2022-11-03T08:57:31.336Z,1.90
2022-11-03T09:03:34.831Z,2.03
2022-11-03T09:16:03.235Z,1.45
2022-11-03T09:22:10.122Z,2.10
2022-11-03T09:28:15.103Z,2.00
2022-11-03T09:34:18.816Z,1.70
2022-11-03T09:40:22.626Z,2.10
2022-11-03T09:46:27.820Z,1.70
2022-11-03T09:52:31.612Z,1.52
2022-11-03T09:58:35.293Z,1.67
2022-11-03T10:04:40.090Z,1.52
2022-11-03T10:10:43.455Z,2.05
2022-11-03T10:16:53.423Z,1.98
2022-11-03T10:22:58.475Z,2.10
2022-11-03T10:29:03.685Z,1.85
2022-11-03T10:35:31.609Z,2.28
2022-11-03T10:41:36.431Z,1.85
2022-11-03T10:47:39.799Z,1.83
2022-11-03T10:53:43.644Z,1.98
2022-11-03T10:59:50.801Z,1.75
2022-11-03T11:05:54.196Z,2.03
2022-11-03T11:12:03.416Z,1.65
2022-11-03T11:18:08.463Z,1.42
2022-11-03T11:24:12.612Z,2.13
2022-11-03T11:30:30.841Z,1.40
2022-11-03T11:36:35.905Z,1.58
2022-11-03T11:43:02.306Z,1.88
2022-11-03T11:49:21.135Z,1.60
2022-11-03T11:55:28.744Z,1.88
2022-11-03T12:01:34.963Z,1.70
2022-11-03T12:07:38.751Z,1.50
2022-11-03T12:13:48.401Z,2.05
2022-11-03T12:19:52.617Z,2.00
2022-11-03T12:25:56.024Z,3.17
2022-11-03T12:32:02.494Z,2.97
2022-11-03T12:38:06.618Z,2.55
2022-11-03T12:44:10.039Z,2.13
2022-11-03T12:50:14.841Z,2.10
2022-11-03T12:56:18.812Z,2.10
2022-11-03T13:02:22.619Z,2.10
2022-11-03T13:08:27.705Z,2.10
2022-11-03T13:14:31.097Z,2.15
2022-11-03T13:20:34.486Z,1.80
2022-11-03T13:26:39.391Z,2.13
2022-11-03T13:32:42.814Z,1.83
2022-11-03T13:38:46.420Z,1.90
2022-11-03T13:44:51.296Z,2.15
2022-11-03T13:50:56.127Z,2.13
2022-11-03T14:09:48.127Z,2.40
2022-11-03T14:15:51.767Z,1.92
2022-11-03T14:21:56.520Z,2.15
2022-11-03T14:27:59.976Z,2.08
2022-11-03T14:34:03.548Z,2.17
2022-11-03T14:40:29.229Z,2.25
2022-11-03T14:46:32.838Z,2.25
2022-11-03T14:52:36.316Z,2.67
2022-11-03T14:58:41.540Z,2.13
2022-11-03T15:04:44.964Z,2.30
2022-11-03T15:10:48.381Z,2.30
2022-11-03T15:16:53.261Z,2.88
2022-11-03T15:29:20.914Z,2.90
2022-11-03T15:35:26.572Z,3.10
2022-11-03T15:41:30.058Z,2.30
2022-11-03T15:47:33.575Z,2.55
2022-11-03T15:53:38.539Z,2.58
2022-11-03T15:59:42.429Z,2.25
2022-11-03T16:05:47.752Z,2.65
2022-11-03T16:11:52.473Z,1.80
2022-11-03T16:18:02.692Z,2.05
2022-11-03T16:24:07.232Z,2.20
2022-11-03T16:30:13.233Z,2.13
2022-11-03T16:36:16.637Z,2.00
2022-11-03T16:42:20.884Z,2.20
2022-11-03T16:48:25.887Z,2.25
2022-11-03T16:54:35.117Z,2.17
2022-11-03T17:00:39.239Z,2.00
2022-11-03T17:06:44.026Z,2.15
2022-11-03T17:12:47.727Z,2.05
2022-11-03T17:18:51.118Z,1.73
2022-11-03T17:24:56.020Z,2.00
2022-11-03T17:30:59.721Z,1.63
2022-11-03T17:37:03.600Z,1.73
2022-11-03T17:43:13.167Z,2.20
2022-11-03T17:49:16.575Z,1.90
2022-11-03T17:55:22.752Z,2.35
2022-11-03T18:01:28.518Z,2.05
2022-11-03T18:07:31.935Z,2.10
2022-11-03T18:13:37.104Z,2.10
2022-11-03T18:19:42.473Z,3.00
2022-11-03T18:25:46.474Z,3.88
2022-11-03T18:31:50.906Z,3.45
2022-11-03T18:37:56.094Z,3.22
2022-11-03T18:43:59.423Z,3.38
2022-11-03T18:50:02.976Z,2.78
2022-11-03T18:56:12.380Z,3.40
2022-11-03T19:02:18.028Z,3.20
2022-11-03T19:08:23.691Z,2.78
2022-11-03T19:14:31.954Z,1.92
2022-11-03T19:20:35.552Z,1.40
2022-11-03T19:26:43.234Z,1.60
2022-11-03T19:32:49.669Z,1.60
2022-11-03T19:38:53.962Z,2.50
2022-11-03T19:44:58.264Z,1.65
2022-11-03T19:51:10.618Z,2.30
2022-11-03T19:57:14.743Z,2.80
2022-11-03T20:03:18.898Z,2.75
2022-11-03T20:09:25.085Z,2.33
2022-11-03T20:15:28.693Z,2.70
2022-11-03T20:21:34.481Z,2.50
2022-11-03T20:27:39.828Z,2.42
2022-11-03T20:33:43.230Z,2.80
2022-11-03T20:39:47.693Z,2.75
2022-11-03T20:45:52.477Z,2.70
2022-11-03T20:51:56.133Z,2.50
2022-11-03T20:58:00.565Z,2.00
2022-11-03T21:04:09.843Z,2.00
2022-11-03T21:10:17.918Z,2.10
2022-11-03T21:16:41.346Z,2.47
2022-11-03T21:22:54.326Z,2.55
2022-11-03T21:28:58.002Z,2.10
2022-11-03T21:35:01.815Z,2.15
2022-11-03T21:41:26.510Z,1.92
2022-11-03T21:47:29.925Z,1.90
2022-11-03T21:53:33.441Z,1.90
2022-11-03T21:59:38.218Z,2.08
2022-11-03T22:05:41.776Z,1.77
2022-11-03T22:11:45.236Z,1.80
2022-11-03T22:17:50.052Z,1.98
2022-11-03T22:24:10.184Z,2.00
2022-11-03T22:30:31.597Z,2.65
2022-11-03T22:36:36.384Z,2.20
2022-11-03T22:42:57.528Z,2.25
2022-11-03T22:49:00.990Z,2.28
2022-11-03T22:55:06.376Z,2.40
2022-11-03T23:01:10.948Z,2.22
2022-11-03T23:07:15.114Z,1.98
2022-11-03T23:13:19.809Z,1.90
2022-11-03T23:19:41.044Z,1.63
2022-11-03T23:25:44.354Z,1.67
2022-11-03T23:31:49.151Z,1.50
2022-11-03T23:37:52.596Z,1.58
2022-11-03T23:43:56.117Z,1.45
2022-11-03T23:50:00.865Z,1.38
2022-11-03T23:56:21.679Z,1.70
